Time;durP1;ratioP1;P1;durP2;ratioP2;P2;SDS_P1;SDS_P2;PMS_P1;PMS_P2;Temp;Humidity;BMP_temperature;BMP_pressure;BME280_temperature;BME280_humidity;BME280_pressure;Samples;Min_cycle;Max_cycle;Signal;HPM_P1;HPM_P2
2023/03/09 00:13:56;;;;;;;7.38;3.90;;;;;;;16.49;46.02;99331.78;6326661;22;20059;-84
2023/03/09 00:16:30;;;;;;;5.15;3.60;;;;;;;16.50;45.82;99332.63;6309238;22;20023;-84
2023/03/09 01:03:03;;;;;;;4.07;2.50;;;;;;;16.46;45.89;99378.59;6293651;22;20345;-80
2023/03/09 01:05:28;;;;;;;5.57;2.90;;;;;;;16.48;45.94;99374.19;6286167;22;20030;-80
2023/03/09 01:07:54;;;;;;;5.55;2.67;;;;;;;16.48;45.56;99379.41;6287557;22;20324;-80
2023/03/09 01:10:19;;;;;;;3.35;2.30;;;;;;;16.50;45.79;99376.75;6286462;22;20031;-80
2023/03/09 01:12:48;;;;;;;3.60;2.40;;;;;;;16.50;45.63;99375.00;6260593;22;20495;-80
2023/03/09 01:15:14;;;;;;;3.75;2.50;;;;;;;16.48;45.56;99373.34;6261469;22;20025;-80
2023/03/09 01:17:39;;;;;;;4.25;2.60;;;;;;;16.48;45.71;99376.78;6286997;22;20015;-80
2023/03/09 01:20:09;;;;;;;5.30;2.20;;;;;;;16.49;45.76;99394.09;6312108;22;20003;-80
2023/03/09 01:22:35;;;;;;;3.95;2.42;;;;;;;16.49;45.73;99406.22;6287234;22;19999;-80
2023/03/09 01:25:00;;;;;;;3.35;2.20;;;;;;;16.49;45.84;99407.06;6260893;22;20018;-80
2023/03/09 01:27:26;;;;;;;3.47;2.40;;;;;;;16.49;45.67;99404.47;6286685;22;20420;-81
2023/03/09 01:29:52;;;;;;;3.08;2.13;;;;;;;16.48;45.78;99401.91;6262945;22;20453;-80
2023/03/09 01:32:17;;;;;;;2.95;2.17;;;;;;;16.50;45.77;99402.72;6288232;22;20453;-80
2023/03/09 01:34:43;;;;;;;2.88;2.05;;;;;;;16.48;45.73;99404.50;6261593;22;19999;-80
2023/03/09 01:37:09;;;;;;;3.47;2.05;;;;;;;16.49;45.79;99408.84;6290415;22;20339;-81
2023/03/09 01:39:35;;;;;;;2.97;2.05;;;;;;;16.50;45.69;99418.31;6296177;22;20011;-81
2023/03/09 01:42:03;;;;;;;2.55;1.80;;;;;;;16.47;45.75;99411.47;6316969;22;19999;-81
2023/03/09 01:44:29;;;;;;;4.05;2.10;;;;;;;16.47;45.89;99414.06;6290301;22;19999;-81
2023/03/09 01:46:56;;;;;;;3.17;2.10;;;;;;;16.47;45.66;99415.81;6262898;22;20044;-81
2023/03/09 01:49:46;;;;;;;2.95;1.77;;;;;;;16.49;45.71;99416.63;6288043;22;20133;-81
2023/03/09 01:52:19;;;;;;;3.15;1.95;;;;;;;16.48;45.64;99423.53;6286482;22;20003;-81
2023/03/09 01:54:50;;;;;;;3.53;1.80;;;;;;;16.49;45.64;99437.41;6286245;22;20099;-81
2023/03/09 01:57:45;;;;;;;2.85;1.90;;;;;;;16.47;45.86;99441.78;6286728;22;20011;-80
2023/03/09 02:00:23;;;;;;;2.78;1.58;;;;;;;16.48;45.78;99436.53;6286328;22;20454;-81
2023/03/09 02:02:57;;;;;;;4.30;1.80;;;;;;;16.47;45.78;99442.63;6288128;22;20029;-81
2023/03/09 02:16:54;;;;;;;3.92;1.95;;;;;;;16.43;45.55;99435.81;6276676;22;20092;-84
2023/03/09 02:19:35;;;;;;;2.25;1.60;;;;;;;16.41;45.88;99443.63;6279007;22;19988;-84
2023/03/09 02:22:05;;;;;;;2.30;1.67;;;;;;;16.42;45.90;99449.69;6260894;22;20023;-84
2023/03/09 02:24:49;;;;;;;3.47;1.77;;;;;;;16.42;45.76;99457.47;6309909;22;20011;-84
2023/03/09 02:32:25;;;;;;;2.30;1.60;;;;;;;16.41;45.87;99454.00;6252179;22;20028;-81
2023/03/09 02:34:51;;;;;;;2.13;1.42;;;;;;;16.41;45.83;99454.00;6211844;23;20011;-81
2023/03/09 02:37:33;;;;;;;2.80;1.60;;;;;;;16.40;45.82;99449.72;6231482;23;20042;-81
2023/03/09 02:40:18;;;;;;;1.85;1.45;;;;;;;16.40;45.81;99451.47;6256447;23;20004;-81
2023/03/09 02:42:45;;;;;;;2.15;1.63;;;;;;;16.38;46.01;99450.66;6257771;22;20026;-81
2023/03/09 02:45:14;;;;;;;1.70;1.38;;;;;;;16.38;45.84;99446.31;6284954;22;20004;-80
2023/03/09 02:47:40;;;;;;;2.10;1.50;;;;;;;16.39;45.66;99457.53;6258489;22;20003;-81
2023/03/09 02:50:10;;;;;;;2.45;1.60;;;;;;;16.37;45.93;99459.31;6257976;22;20014;-81
2023/03/09 02:52:38;;;;;;;1.90;1.42;;;;;;;16.39;45.85;99468.78;6285390;22;20077;-81
2023/03/09 02:55:05;;;;;;;1.90;1.40;;;;;;;16.39;45.86;99465.34;6258578;22;20447;-81
2023/03/09 02:57:31;;;;;;;2.45;1.58;;;;;;;16.39;45.89;99458.38;6283582;22;20012;-81
2023/03/09 02:59:56;;;;;;;2.28;1.40;;;;;;;16.39;45.77;99468.78;6257448;22;20011;-81
2023/03/09 03:02:22;;;;;;;1.88;1.30;;;;;;;16.40;45.68;99454.06;6257681;22;20023;-81
2023/03/09 03:04:48;;;;;;;1.83;1.50;;;;;;;16.40;45.75;99448.88;6232602;22;20455;-81
2023/03/09 03:07:13;;;;;;;1.95;1.45;;;;;;;16.39;45.69;99453.19;6258631;22;20010;-81
2023/03/09 03:09:42;;;;;;;1.98;1.30;;;;;;;16.41;45.69;99476.53;6259179;22;20000;-81
2023/03/09 03:12:08;;;;;;;1.85;1.20;;;;;;;16.40;45.69;99460.09;6285220;22;20019;-81
2023/03/09 03:14:35;;;;;;;1.40;1.00;;;;;;;16.41;45.81;99458.34;6257835;22;20428;-81
2023/03/09 03:17:00;;;;;;;2.25;1.35;;;;;;;16.39;45.79;99460.13;6285521;22;20007;-81
2023/03/09 03:19:27;;;;;;;1.83;1.30;;;;;;;16.39;45.77;99453.19;6258383;22;20007;-81
2023/03/09 03:21:52;;;;;;;1.85;1.20;;;;;;;16.40;45.60;99448.88;6256721;22;20004;-81
2023/03/09 03:27:02;;;;;;;1.65;1.20;;;;;;;16.38;45.59;99445.47;6280797;22;20019;-84
2023/03/09 03:29:28;;;;;;;1.33;1.10;;;;;;;16.37;45.86;99446.34;6279073;22;20075;-84
2023/03/09 03:32:14;;;;;;;2.65;1.17;;;;;;;16.38;45.72;99450.66;6279373;22;19991;-84
2023/03/09 03:34:40;;;;;;;1.83;1.05;;;;;;;16.37;45.75;99464.53;6278832;22;20000;-84
2023/03/09 03:37:05;;;;;;;2.33;1.17;;;;;;;16.36;45.89;99461.09;6278926;22;20030;-84
2023/03/09 03:39:34;;;;;;;1.83;1.25;;;;;;;16.36;45.94;99458.47;6278582;22;20038;-84
2023/03/09 03:41:59;;;;;;;1.38;0.95;;;;;;;16.36;45.65;99468.88;6278531;22;20005;-84
2023/03/09 03:44:27;;;;;;;2.30;1.10;;;;;;;16.35;45.70;99484.47;6278190;22;19999;-84
2023/03/09 04:44:54;;;;;;;1.42;0.98;;;;;;;16.33;45.70;99583.19;6263280;22;20027;-84
2023/03/09 05:20:57;;;;;;;1.92;1.05;;;;;;;16.34;45.75;99577.09;6275919;22;20023;-82
2023/03/09 05:23:23;;;;;;;2.30;1.25;;;;;;;16.37;45.65;99583.94;6275141;22;20017;-80
2023/03/09 05:54:16;;;;;;;1.48;1.10;;;;;;;16.39;45.61;99631.50;6255104;22;20032;-79
2023/03/09 05:56:42;;;;;;;2.35;1.00;;;;;;;16.38;45.69;99633.25;6281696;22;20011;-79
2023/03/09 05:59:07;;;;;;;1.52;1.00;;;;;;;16.38;45.84;99643.63;6229464;22;20023;-78
2023/03/09 06:01:33;;;;;;;1.10;0.90;;;;;;;16.38;45.76;99650.59;6229347;22;20429;-79
2023/03/09 06:03:58;;;;;;;1.77;1.20;;;;;;;16.39;45.58;99644.47;6204923;22;20007;-79
2023/03/09 06:14:43;;;;;;;3.92;1.30;;;;;;;16.63;46.30;99661.22;6296247;22;20023;-81
2023/03/09 06:17:15;;;;;;;2.58;1.20;;;;;;;16.81;46.47;99667.72;6194278;23;20100;-83
2023/03/09 06:19:41;;;;;;;18.15;3.60;;;;;;;16.86;46.81;99671.94;6200569;23;20016;-82
2023/03/09 06:22:06;;;;;;;13.13;3.70;;;;;;;16.89;47.00;99678.78;6198196;23;20048;-81
2023/03/09 06:24:32;;;;;;;11.90;3.28;;;;;;;16.93;46.77;99682.19;6177254;23;20067;-81
2023/03/09 06:26:58;;;;;;;7.38;3.03;;;;;;;16.93;46.77;99680.44;6153669;23;20036;-80
2023/03/09 06:29:25;;;;;;;9.43;2.70;;;;;;;16.96;46.70;99685.56;6172204;23;20012;-81
2023/03/09 06:31:51;;;;;;;7.93;2.70;;;;;;;16.98;46.39;99688.94;6174820;23;20096;-81
2023/03/09 06:34:16;;;;;;;6.15;2.53;;;;;;;16.99;46.73;99695.03;6205929;23;20011;-81
2023/03/09 06:36:42;;;;;;;14.02;2.50;;;;;;;16.98;46.57;99694.16;6199377;23;20054;-81
2023/03/09 06:39:07;;;;;;;8.32;2.50;;;;;;;17.00;46.57;99696.72;6170744;23;19992;-80
2023/03/09 06:41:33;;;;;;;8.27;2.72;;;;;;;17.01;46.38;99699.28;6203633;22;20008;-78
2023/03/09 06:59:30;;;;;;;4.57;2.15;;;;;;;17.04;46.16;99714.78;6299538;22;20063;-83
2023/03/09 07:01:58;;;;;;;4.93;2.30;;;;;;;17.04;46.15;99725.19;6277535;22;20026;-79
2023/03/09 07:04:30;;;;;;;3.45;2.00;;;;;;;17.11;46.15;99725.03;6293974;22;19991;-80
2023/03/09 07:06:57;;;;;;;4.05;1.83;;;;;;;17.08;46.09;99740.72;6295644;22;20004;-81
2023/03/09 07:09:41;;;;;;;4.13;1.95;;;;;;;17.06;46.14;99745.94;6248670;22;20019;-80
2023/03/09 07:12:07;;;;;;;3.90;2.00;;;;;;;17.06;46.05;99749.41;6291075;22;20011;-80
2023/03/09 07:14:32;;;;;;;4.13;2.08;;;;;;;17.08;45.98;99751.97;6242002;22;20003;-81
2023/03/09 07:20:24;;;;;;;2.50;1.70;;;;;;;17.11;45.77;99762.28;6239774;23;20023;-80
2023/03/09 07:23:09;;;;;;;7.18;2.30;;;;;;;17.12;45.87;99764.00;6241180;23;20005;-81
2023/03/09 07:25:46;;;;;;;5.70;2.00;;;;;;;17.14;45.99;99759.63;6214905;23;20005;-80
2023/03/09 09:03:31;;;;;;;1.80;1.20;;;;;;;17.34;44.57;99888.28;6209539;22;20142;31
2023/03/09 09:11:14;;;;;;;2.35;1.40;;;;;;;17.31;44.57;99912.63;6209725;23;20015;-83
2023/03/09 09:47:41;;;;;;;2.15;1.08;;;;;;;17.35;44.17;99906.44;6273998;22;20035;-82
2023/03/09 09:50:41;;;;;;;1.45;1.23;;;;;;;17.36;44.36;99910.75;6218706;23;20428;-82
2023/03/09 09:53:53;;;;;;;1.30;1.20;;;;;;;17.36;44.28;99908.16;6218976;23;20008;-82
2023/03/09 09:56:27;;;;;;;1.10;0.93;;;;;;;17.39;44.46;99904.63;6146129;23;20021;-82
2023/03/09 09:58:59;;;;;;;2.47;1.10;;;;;;;17.40;43.94;99899.41;6146254;23;20006;-82
2023/03/09 10:01:55;;;;;;;1.65;1.15;;;;;;;17.41;43.99;99905.44;6223073;22;19992;-81
2023/03/09 10:04:38;;;;;;;1.55;1.10;;;;;;;17.41;43.97;99910.66;6267990;23;20372;-82
2023/03/09 10:07:21;;;;;;;1.13;0.95;;;;;;;17.43;43.83;99911.47;6242126;23;20004;-82
2023/03/09 10:10:06;;;;;;;1.10;0.90;;;;;;;17.43;43.97;99912.31;6242082;23;20012;-82
2023/03/09 10:12:37;;;;;;;1.13;1.00;;;;;;;17.43;43.88;99906.28;6266036;23;20027;-83
2023/03/09 10:15:26;;;;;;;1.33;0.90;;;;;;;17.43;43.97;99899.31;6246700;23;20015;-82
2023/03/09 10:18:24;;;;;;;1.60;1.10;;;;;;;17.44;44.04;99895.84;6271009;23;20004;-83
2023/03/09 10:20:54;;;;;;;1.60;0.90;;;;;;;17.43;43.89;99908.88;6232993;23;20071;-83
2023/03/09 10:23:41;;;;;;;1.90;1.02;;;;;;;17.44;43.90;99897.56;6244383;23;20019;-83
2023/03/09 10:26:37;;;;;;;1.20;0.82;;;;;;;17.44;43.92;99895.84;6244089;23;20085;-83
2023/03/09 10:29:47;;;;;;;1.55;0.95;;;;;;;17.44;43.83;99901.03;6263862;23;19992;-82
2023/03/09 10:32:57;;;;;;;1.42;0.85;;;;;;;17.46;44.01;99899.25;6271836;22;20043;-82
2023/03/09 10:36:02;;;;;;;1.30;1.13;;;;;;;17.46;43.93;99903.59;6250398;22;20000;-83
2023/03/09 10:39:06;;;;;;;1.98;1.00;;;;;;;17.45;43.95;99899.28;6336099;22;20067;-82
2023/03/09 10:41:40;;;;;;;1.08;0.98;;;;;;;17.46;43.92;99888.84;6337225;22;20054;-83
2023/03/09 10:44:26;;;;;;;1.20;0.88;;;;;;;17.48;43.83;99887.06;6308930;22;20019;-82
2023/03/09 10:47:14;;;;;;;1.08;0.98;;;;;;;17.53;43.81;99884.38;6332678;22;20018;-83
2023/03/09 10:49:41;;;;;;;1.08;0.90;;;;;;;17.53;43.67;99892.16;6309615;22;20022;-82
2023/03/09 10:52:43;;;;;;;1.20;0.90;;;;;;;17.55;43.55;99889.50;6334141;22;20008;-82
2023/03/09 10:55:57;;;;;;;1.63;1.10;;;;;;;17.54;43.69;99896.47;6333210;22;19999;-82
2023/03/09 11:02:50;;;;;;;1.20;0.80;;;;;;;17.52;43.73;99903.44;6334831;22;20027;-83
2023/03/09 11:05:52;;;;;;;0.80;0.73;;;;;;;17.50;43.69;99909.56;6255244;22;20015;-82
2023/03/09 11:08:28;;;;;;;1.27;0.90;;;;;;;17.51;43.59;99914.75;6314378;22;20030;-82
2023/03/09 11:11:31;;;;;;;1.00;0.80;;;;;;;17.50;43.91;99919.97;6308128;22;20003;-83
2023/03/09 11:14:44;;;;;;;1.30;1.10;;;;;;;17.52;43.56;99931.22;6305824;22;20011;-82
2023/03/09 11:17:51;;;;;;;1.30;0.80;;;;;;;17.51;43.83;99922.56;6332695;22;20003;-82
2023/03/09 11:20:30;;;;;;;1.10;0.85;;;;;;;17.50;43.75;99927.78;6306729;22;20007;-82
2023/03/09 11:23:45;;;;;;;1.00;0.90;;;;;;;17.51;43.60;99930.38;6332654;22;19991;-82
2023/03/09 11:26:40;;;;;;;1.20;0.80;;;;;;;17.48;43.81;99920.88;6332639;22;19999;-83
2023/03/09 11:29:14;;;;;;;0.75;0.70;;;;;;;17.50;43.68;99931.25;6331650;22;19995;-81
2023/03/09 11:31:45;;;;;;;1.33;1.00;;;;;;;17.49;43.78;99924.34;6318656;22;20022;-81
2023/03/09 11:34:36;;;;;;;1.50;1.10;;;;;;;17.51;43.75;99926.88;6317492;22;20007;-81
2023/03/09 11:37:40;;;;;;;1.98;1.08;;;;;;;17.51;43.87;99922.56;6323626;22;19999;-82
2023/03/09 11:44:19;;;;;;;4.35;1.00;;;;;;;17.56;43.57;99927.66;6274190;22;20027;-84
2023/03/09 11:50:52;;;;;;;1.67;0.90;;;;;;;17.54;43.85;99914.66;6272163;22;20023;-83
2023/03/09 11:54:00;;;;;;;7.65;0.90;;;;;;;17.54;43.86;99922.47;6256498;22;20115;-83
2023/03/09 11:57:05;;;;;;;8.57;1.02;;;;;;;17.54;43.60;99916.41;6200255;23;20012;-81
2023/03/09 13:18:49;;;;;;;2.83;1.15;;;;;;;17.62;43.95;99826.88;6331224;22;20010;-81
2023/03/09 13:28:46;;;;;;;4.82;1.30;;;;;;;17.60;43.90;99827.81;6331390;22;20030;-82
2023/03/09 13:31:27;;;;;;;2.47;1.10;;;;;;;17.61;44.00;99822.56;6299345;22;20386;-82
2023/03/09 13:33:55;;;;;;;2.70;1.13;;;;;;;17.62;43.68;99826.03;6291938;22;20093;-81
2023/03/09 13:36:25;;;;;;;7.13;1.40;;;;;;;17.63;43.73;99825.13;6320181;22;20003;-82
2023/03/09 13:38:57;;;;;;;6.50;1.20;;;;;;;17.63;43.34;99827.75;6291901;22;20003;-82
2023/03/09 13:41:27;;;;;;;1.10;0.95;;;;;;;17.62;43.76;99820.84;6292128;22;20022;-82
2023/03/09 13:44:00;;;;;;;1.48;1.00;;;;;;;17.62;44.03;99819.09;6317551;22;20331;-82
2023/03/09 13:46:35;;;;;;;1.60;1.10;;;;;;;17.64;43.68;99819.06;6290357;22;20022;-81
2023/03/09 13:53:04;;;;;;;2.13;1.30;;;;;;;17.63;43.73;99814.72;6326060;22;20063;-82
2023/03/09 13:56:08;;;;;;;3.60;1.17;;;;;;;17.63;43.82;99801.72;6301977;22;20007;-82
2023/03/09 14:02:11;;;;;;;2.53;1.20;;;;;;;17.64;43.90;99793.03;6202459;23;20075;-83
2023/03/09 14:16:34;;;;;;;2.80;1.20;;;;;;;17.66;43.90;99776.50;6279205;22;20020;-82
2023/03/09 14:19:03;;;;;;;4.93;1.20;;;;;;;17.73;44.01;99778.94;6267534;22;20502;-83
2023/03/09 14:21:35;;;;;;;1.45;1.00;;;;;;;17.74;43.53;99770.22;6267068;22;20027;-83
2023/03/09 14:24:15;;;;;;;1.20;1.00;;;;;;;17.73;43.89;99768.53;6266124;22;20030;-83
2023/03/09 14:26:42;;;;;;;3.08;1.02;;;;;;;17.75;43.71;99769.34;6266624;22;20034;-82
2023/03/09 14:29:20;;;;;;;1.95;1.10;;;;;;;17.75;43.61;99766.75;6290148;22;20007;-80
2023/03/09 14:31:46;;;;;;;2.83;1.10;;;;;;;17.75;43.88;99756.31;6268650;22;20003;-83
2023/03/09 14:34:14;;;;;;;2.88;1.05;;;;;;;17.78;43.84;99754.47;6275520;22;20007;-83
2023/03/09 14:36:49;;;;;;;2.35;0.90;;;;;;;17.79;43.86;99752.72;6273082;22;20014;-83
2023/03/09 14:39:24;;;;;;;1.52;0.90;;;;;;;17.78;43.85;99749.28;6271503;22;20440;-83
2023/03/09 14:42:08;;;;;;;5.68;1.00;;;;;;;17.79;44.11;99740.59;6275292;22;20011;-83
2023/03/09 14:44:37;;;;;;;2.40;1.00;;;;;;;17.77;44.12;99739.78;6275179;22;20010;-83
2023/03/09 14:47:05;;;;;;;1.38;0.90;;;;;;;17.78;43.85;99727.59;6302082;22;20023;-84
2023/03/09 14:49:31;;;;;;;2.05;0.95;;;;;;;17.78;43.96;99723.25;6275359;22;20352;-84
2023/03/09 14:51:57;;;;;;;1.90;0.95;;;;;;;17.76;44.06;99724.19;6275082;22;19996;-84
2023/03/09 14:54:24;;;;;;;1.58;1.00;;;;;;;17.77;44.19;99721.56;6272880;22;20043;-83
2023/03/09 14:56:50;;;;;;;1.70;0.90;;;;;;;17.78;43.89;99717.19;6302021;22;19999;-84
2023/03/09 14:59:19;;;;;;;0.93;0.80;;;;;;;17.77;43.98;99718.97;6275621;22;20048;-83
2023/03/09 15:01:54;;;;;;;1.75;0.98;;;;;;;17.74;44.18;99724.22;6274425;22;20022;-83
2023/03/09 15:04:30;;;;;;;2.85;0.90;;;;;;;17.75;44.07;99725.09;6272802;22;20003;-83
2023/03/09 15:06:59;;;;;;;0.95;0.80;;;;;;;17.74;44.14;99721.63;6274327;22;20000;-84
2023/03/09 15:09:25;;;;;;;1.45;0.85;;;;;;;17.73;44.35;99714.72;6271573;22;20022;-83
2023/03/09 15:11:53;;;;;;;2.60;1.00;;;;;;;17.73;44.22;99708.69;6270226;22;20007;-83
2023/03/09 15:14:29;;;;;;;2.25;1.20;;;;;;;17.72;44.39;99709.56;6272648;22;19982;-83
2023/03/09 15:16:55;;;;;;;1.77;1.17;;;;;;;17.72;44.30;99707.81;6275094;22;20025;-84
2023/03/09 15:19:22;;;;;;;1.73;0.98;;;;;;;17.72;44.28;99710.41;6272910;22;19995;-84
2023/03/09 15:22:00;;;;;;;1.10;0.90;;;;;;;17.72;44.29;99700.00;6274145;22;19992;-84
2023/03/09 15:24:29;;;;;;;1.00;0.90;;;;;;;17.72;44.30;99692.19;6277570;22;20010;-83
2023/03/09 15:26:56;;;;;;;1.35;0.90;;;;;;;17.71;44.33;99692.25;6278459;22;20007;-82
2023/03/09 15:29:22;;;;;;;1.30;0.80;;;;;;;17.72;44.46;99696.53;6279507;22;20003;-83
2023/03/09 15:31:50;;;;;;;1.50;0.80;;;;;;;17.71;44.32;99685.28;6253821;22;20011;-83
2023/03/09 15:34:16;;;;;;;2.97;0.90;;;;;;;17.71;44.24;99681.84;6297603;22;20090;-84
2023/03/09 15:36:45;;;;;;;1.42;0.90;;;;;;;17.70;44.72;99678.38;6300037;22;20035;-81
2023/03/09 15:39:13;;;;;;;1.67;0.90;;;;;;;17.71;44.61;99681.84;6246850;22;20010;-81
2023/03/09 15:41:38;;;;;;;3.20;0.93;;;;;;;17.69;44.65;99685.31;6272357;22;20007;-82
2023/03/09 15:44:04;;;;;;;1.73;0.88;;;;;;;17.70;44.30;99686.19;6276863;22;19996;-82
2023/03/09 15:46:30;;;;;;;1.05;0.85;;;;;;;17.69;44.53;99681.88;6275156;22;20022;-82
2023/03/09 15:48:56;;;;;;;1.00;0.73;;;;;;;17.68;44.37;99698.38;6244555;22;20037;-81
2023/03/09 15:51:21;;;;;;;1.08;0.68;;;;;;;17.68;44.48;99701.84;6224256;22;19992;-82
2023/03/09 15:53:47;;;;;;;0.98;0.80;;;;;;;17.67;44.29;99702.72;6251401;22;19999;-82
2023/03/09 15:56:14;;;;;;;1.23;0.80;;;;;;;17.66;44.34;99695.84;6248754;22;20015;-82
2023/03/09 15:58:40;;;;;;;0.80;0.70;;;;;;;17.67;44.32;99694.09;6275124;22;20050;-82
2023/03/09 16:01:18;;;;;;;0.70;0.70;;;;;;;17.66;44.38;99690.63;6247073;22;20011;-82
2023/03/09 16:03:44;;;;;;;2.55;0.75;;;;;;;17.66;44.43;99672.41;6272941;22;20007;-82
2023/03/09 16:06:09;;;;;;;0.90;0.63;;;;;;;17.66;44.57;99656.81;6300739;22;19991;-82
2023/03/09 16:08:35;;;;;;;0.85;0.70;;;;;;;17.66;44.39;99661.16;6221373;22;20022;-82
2023/03/09 16:11:04;;;;;;;1.20;0.77;;;;;;;17.65;44.28;99649.88;6270899;22;20015;-82
2023/03/09 16:13:30;;;;;;;0.73;0.60;;;;;;;17.66;44.34;99643.81;6270639;22;20095;-83
2023/03/09 16:15:56;;;;;;;0.57;0.57;;;;;;;17.66;44.26;99633.41;6272107;22;20027;-83
2023/03/09 16:18:21;;;;;;;0.93;0.70;;;;;;;17.66;44.26;99623.00;6272480;22;20007;-83
2023/03/09 16:20:47;;;;;;;0.70;0.70;;;;;;;17.66;44.31;99623.00;6300479;22;20412;-82
2023/03/09 16:23:12;;;;;;;0.68;0.63;;;;;;;17.66;44.18;99632.56;6223913;22;20057;-83
2023/03/09 16:25:39;;;;;;;1.13;0.70;;;;;;;17.66;44.34;99641.19;6273430;22;20014;-82
2023/03/09 16:28:04;;;;;;;0.90;0.60;;;;;;;17.66;44.27;99641.19;6256587;22;20030;-83
2023/03/09 16:30:30;;;;;;;0.98;0.80;;;;;;;17.66;44.57;99627.34;6283669;22;19995;-83
2023/03/09 16:32:56;;;;;;;1.00;0.73;;;;;;;17.66;44.05;99619.53;6309381;22;19998;-83
2023/03/09 16:35:24;;;;;;;0.50;0.50;;;;;;;17.65;44.32;99615.22;6283546;22;19995;-83
2023/03/09 16:37:51;;;;;;;0.82;0.80;;;;;;;17.65;44.41;99618.66;6309827;22;20007;-83
2023/03/09 16:40:17;;;;;;;0.88;0.70;;;;;;;17.66;44.31;99614.34;6336475;22;19995;-83
2023/03/09 16:42:42;;;;;;;0.65;0.60;;;;;;;17.66;44.25;99609.13;6259557;22;19987;-82
2023/03/09 16:45:13;;;;;;;0.75;0.60;;;;;;;17.64;44.44;99613.53;6276290;22;20024;-82
2023/03/09 16:47:40;;;;;;;0.82;0.70;;;;;;;17.63;44.32;99619.63;6279015;22;20000;-82
2023/03/09 16:50:08;;;;;;;2.28;0.77;;;;;;;17.65;44.43;99628.22;6278513;22;20114;-81
2023/03/09 16:52:36;;;;;;;0.75;0.63;;;;;;;17.66;44.38;99637.75;6304563;22;20003;-81
2023/03/09 16:55:06;;;;;;;2.15;0.75;;;;;;;17.64;44.25;99616.97;6276830;22;20026;-81
2023/03/09 16:57:32;;;;;;;1.20;0.70;;;;;;;17.65;44.46;99603.06;6278676;22;19992;-83
2023/03/09 16:59:59;;;;;;;0.50;0.50;;;;;;;17.64;44.40;99603.97;6277021;22;20042;-83
2023/03/09 17:02:27;;;;;;;1.98;0.90;;;;;;;17.65;44.44;99602.22;6253503;22;20011;-84
2023/03/09 17:04:53;;;;;;;1.98;0.80;;;;;;;17.64;44.36;99600.53;6251812;22;20017;-82
2023/03/09 17:07:20;;;;;;;2.75;1.10;;;;;;;17.65;44.48;99589.19;6278819;22;19988;-84
2023/03/09 17:09:46;;;;;;;4.65;1.27;;;;;;;17.64;44.45;99585.75;6279191;22;19991;-85
2023/03/09 17:12:33;;;;;;;2.28;1.00;;;;;;;17.64;44.52;99587.50;6265908;23;20016;-80
2023/03/09 17:14:58;;;;;;;2.22;0.90;;;;;;;17.64;44.70;99588.34;6257914;23;20018;-79
2023/03/09 17:17:23;;;;;;;4.43;1.15;;;;;;;17.66;44.57;99575.31;6266919;23;20016;-80
2023/03/09 17:19:52;;;;;;;5.25;1.40;;;;;;;17.65;45.12;99573.59;6240132;23;20042;-80
2023/03/09 17:22:18;;;;;;;2.78;1.30;;;;;;;17.64;44.78;99551.94;6243394;23;20012;-80
2023/03/09 17:24:43;;;;;;;6.07;1.17;;;;;;;17.65;44.92;99558.81;6274071;22;19996;-80
2023/03/09 17:27:09;;;;;;;2.70;1.23;;;;;;;17.65;44.88;99556.22;6299098;22;20011;-80
2023/03/09 17:29:34;;;;;;;3.40;1.25;;;;;;;17.65;45.41;99537.16;6272876;22;20007;-81
2023/03/09 17:32:01;;;;;;;2.30;1.10;;;;;;;17.66;45.43;99538.91;6246775;22;20011;-80
2023/03/09 17:34:27;;;;;;;2.08;1.08;;;;;;;17.65;45.35;99551.03;6294200;22;20440;-80
2023/03/09 17:36:52;;;;;;;1.63;1.00;;;;;;;17.66;45.65;99552.75;6293220;22;20019;-80
2023/03/09 17:39:18;;;;;;;3.13;1.00;;;;;;;17.66;45.63;99546.69;6264757;22;20417;-80
2023/03/09 17:41:43;;;;;;;2.22;0.98;;;;;;;17.66;45.66;99539.75;6265075;22;20015;-80
2023/03/09 17:44:11;;;;;;;2.45;0.98;;;;;;;17.67;45.80;99522.38;6267109;22;20100;-80
2023/03/09 17:46:37;;;;;;;1.70;0.90;;;;;;;17.67;45.44;99522.38;6320815;22;20093;-80
2023/03/09 17:49:02;;;;;;;1.67;0.90;;;;;;;17.66;45.70;99525.88;6303268;22;20011;-79
2023/03/09 17:51:28;;;;;;;1.42;0.77;;;;;;;17.67;45.55;99514.56;6277710;22;20003;-81
2023/03/09 17:53:53;;;;;;;2.58;0.90;;;;;;;17.65;45.68;99512.00;6303621;22;20004;-80
2023/03/09 17:56:20;;;;;;;2.88;0.90;;;;;;;17.66;45.68;99512.88;6330111;22;20055;-80
2023/03/09 17:58:47;;;;;;;2.83;1.00;;;;;;;17.65;45.94;99506.78;6253287;22;20031;-80
2023/03/09 18:01:24;;;;;;;2.80;1.02;;;;;;;17.66;45.76;99508.53;6297472;22;20003;-79
2023/03/09 18:03:49;;;;;;;1.63;1.00;;;;;;;17.65;45.73;99511.16;6293532;22;20078;-80
2023/03/09 18:06:17;;;;;;;2.38;1.00;;;;;;;17.67;45.89;99509.38;6272043;22;20004;-83
2023/03/09 18:08:45;;;;;;;2.90;0.98;;;;;;;17.64;45.73;99494.69;6304638;22;20014;-83
2023/03/09 18:11:16;;;;;;;3.15;0.80;;;;;;;17.65;45.68;99493.78;6309797;22;20374;-82
2023/03/09 18:13:43;;;;;;;6.13;2.63;;;;;;;17.71;45.94;99504.94;6304788;22;20007;-82
2023/03/09 21:21:27;;;;;;;1.20;0.90;;;;;;;16.77;45.66;99170.75;6209185;23;20053;-83
2023/03/09 21:24:11;;;;;;;1.40;1.00;;;;;;;16.74;45.61;99168.25;6239241;23;20087;-83
2023/03/09 21:27:06;;;;;;;1.67;1.05;;;;;;;16.76;45.61;99166.44;6241625;23;20009;-82
2023/03/09 21:29:41;;;;;;;0.95;0.77;;;;;;;16.74;45.58;99152.66;6223999;23;20035;-81
2023/03/09 21:32:10;;;;;;;1.35;0.98;;;;;;;16.74;45.38;99157.00;6181933;23;20009;-82
2023/03/09 21:34:57;;;;;;;1.30;0.88;;;;;;;16.73;45.43;99153.56;6235599;23;20039;-80
2023/03/09 21:37:23;;;;;;;1.33;0.75;;;;;;;16.76;45.38;99139.63;6234495;23;20007;-80
2023/03/09 21:39:50;;;;;;;1.40;0.90;;;;;;;16.76;45.33;99131.84;6234738;23;20025;-81
2023/03/09 22:39:49;;;;;;;2.15;0.90;;;;;;;16.71;45.46;99017.69;6200986;22;20973;-78
2023/03/09 22:42:15;;;;;;;1.38;0.80;;;;;;;16.72;45.54;99015.94;6312691;22;20019;-77
2023/03/09 22:44:40;;;;;;;1.38;0.98;;;;;;;16.71;45.60;99012.50;6263514;22;20011;-78
2023/03/09 22:47:05;;;;;;;3.33;0.80;;;;;;;16.72;45.60;99008.16;6286079;22;20098;-78
2023/03/09 22:49:31;;;;;;;2.35;0.88;;;;;;;16.69;45.81;98998.72;6310629;22;20121;-77
2023/03/09 22:51:57;;;;;;;1.50;0.90;;;;;;;16.70;45.84;99002.16;6257515;22;20007;-78
2023/03/09 22:54:22;;;;;;;1.40;0.70;;;;;;;16.71;45.91;98988.28;6282863;22;20074;-78
2023/03/09 22:56:47;;;;;;;0.95;0.63;;;;;;;16.70;45.73;98999.56;6257163;22;20018;-77
2023/03/09 22:59:14;;;;;;;1.70;0.75;;;;;;;16.71;45.53;98994.31;6282907;22;20056;-78
2023/03/09 23:01:40;;;;;;;0.95;0.70;;;;;;;16.70;45.71;98982.25;6283438;22;20003;-78
2023/03/09 23:04:06;;;;;;;4.35;0.80;;;;;;;16.71;45.71;98981.34;6284225;22;20031;-78
2023/03/09 23:06:33;;;;;;;3.78;0.60;;;;;;;16.70;45.78;98979.66;6282707;22;20049;-78
2023/03/09 23:08:59;;;;;;;1.48;0.80;;;;;;;16.71;45.78;98977.91;6282458;22;20015;-78
2023/03/09 23:11:27;;;;;;;0.70;0.60;;;;;;;16.72;45.53;98969.19;6281915;22;20012;-77
2023/03/09 23:13:53;;;;;;;0.85;0.60;;;;;;;16.71;45.61;98967.50;6281949;22;20014;-78
2023/03/09 23:16:19;;;;;;;1.35;0.70;;;;;;;16.72;45.64;98958.81;6281764;22;20008;-78
2023/03/09 23:18:44;;;;;;;1.00;0.70;;;;;;;16.71;45.71;98955.38;6281891;22;20015;-78
2023/03/09 23:21:11;;;;;;;0.98;0.68;;;;;;;16.71;45.70;98952.78;6282134;22;20086;-78
2023/03/09 23:23:37;;;;;;;2.28;0.80;;;;;;;16.69;45.68;98940.75;6281888;22;20003;-78
2023/03/09 23:26:03;;;;;;;4.93;0.73;;;;;;;16.70;45.65;98939.84;6307947;22;20078;-78
2023/03/09 23:28:29;;;;;;;1.13;0.70;;;;;;;16.68;45.68;98939.91;6284091;22;20011;-78
2023/03/09 23:30:55;;;;;;;1.13;0.65;;;;;;;16.70;45.69;98930.31;6281739;22;20015;-77
2023/03/09 23:33:21;;;;;;;0.88;0.60;;;;;;;16.67;45.75;98931.25;6282061;22;20007;-78
2023/03/09 23:35:47;;;;;;;2.38;0.70;;;;;;;16.68;45.77;98934.72;6281604;22;20558;-78
2023/03/09 23:38:12;;;;;;;1.00;0.68;;;;;;;16.69;45.53;98923.41;6281945;22;20038;-79
2023/03/09 23:40:42;;;;;;;1.33;0.70;;;;;;;16.69;45.78;98925.16;6256049;22;20019;-79
2023/03/09 23:43:07;;;;;;;1.17;0.57;;;;;;;16.69;45.61;98927.75;6307060;22;20011;-79
2023/03/09 23:45:32;;;;;;;1.48;0.70;;;;;;;16.66;45.48;98924.38;6282098;22;20060;-80
2023/03/09 23:47:58;;;;;;;1.65;0.73;;;;;;;16.65;45.49;98912.28;6282136;22;20071;-79
2023/03/09 23:50:24;;;;;;;0.73;0.60;;;;;;;16.64;45.65;98907.16;6281252;22;20011;-79
2023/03/09 23:52:49;;;;;;;1.40;0.65;;;;;;;16.65;45.59;98904.47;6282124;22;20018;-79
2023/03/09 23:55:16;;;;;;;0.77;0.60;;;;;;;16.64;45.48;98908.00;6259710;22;20003;-80